createdAt,value
2022-12-20T00:00:32.395Z,100916.66
2022-12-20T00:05:40.101Z,100905.00
2022-12-20T00:10:45.321Z,100912.13
2022-12-20T00:15:46.752Z,100913.41
2022-12-20T00:20:48.166Z,100901.75
2022-12-20T00:25:49.589Z,100906.97
2022-12-20T00:30:54.439Z,100913.22
2022-12-20T00:35:57.110Z,100906.72
2022-12-20T00:41:10.591Z,100898.56
2022-12-20T00:46:14.408Z,100876.91
2022-12-20T00:51:18.876Z,100893.66
2022-12-20T00:56:21.190Z,100893.47
2022-12-20T01:01:28.162Z,100915.72
2022-12-20T01:06:30.759Z,100909.84
2022-12-20T01:11:35.256Z,100913.88
2022-12-20T01:16:41.844Z,100901.78
2022-12-20T01:21:46.337Z,100914.88
2022-12-20T01:26:48.175Z,100922.41
2022-12-20T01:31:49.904Z,100922.69
2022-12-20T01:36:51.415Z,100912.59
2022-12-20T01:41:52.902Z,100901.81
2022-12-20T01:46:55.027Z,100887.03
2022-12-20T01:52:08.221Z,100871.09
2022-12-20T01:57:16.378Z,100844.63
2022-12-20T02:02:18.263Z,100854.09
2022-12-20T02:07:28.223Z,100840.94
2022-12-20T02:12:48.714Z,100820.13
2022-12-20T02:18:02.016Z,100826.91
2022-12-20T02:23:35.139Z,100819.75
2022-12-20T02:28:59.805Z,100818.66
2022-12-20T02:34:03.157Z,100820.91
2022-12-20T02:39:04.653Z,100805.72
2022-12-20T02:44:30.287Z,100796.09
2022-12-20T02:49:38.509Z,100783.44
2022-12-20T02:54:40.078Z,100776.03
2022-12-20T03:00:06.685Z,100785.81
2022-12-20T03:05:08.348Z,100771.28
2022-12-20T03:10:10.854Z,100767.19
2022-12-20T03:15:12.331Z,100764.13
2022-12-20T03:20:13.900Z,100770.97
2022-12-20T03:25:15.549Z,100765.84
2022-12-20T03:30:17.055Z,100766.19
2022-12-20T03:35:18.631Z,100768.75
2022-12-20T03:40:20.161Z,100770.38
2022-12-20T03:45:21.648Z,100772.19
2022-12-20T03:50:23.169Z,100777.84
2022-12-20T03:55:24.863Z,100782.84
2022-12-20T04:00:26.346Z,100764.75
2022-12-20T04:05:27.799Z,100773.56
2022-12-20T04:10:29.221Z,100774.00
2022-12-20T04:15:30.691Z,100762.47
2022-12-20T04:20:32.129Z,100763.47
2022-12-20T04:25:33.546Z,100768.69
2022-12-20T04:30:34.975Z,100775.13
2022-12-20T04:35:37.936Z,100770.59
2022-12-20T04:40:39.359Z,100768.59
2022-12-20T04:45:40.787Z,100789.91
2022-12-20T04:50:42.879Z,100785.72
2022-12-20T04:55:44.343Z,100780.09
2022-12-20T05:00:45.777Z,100767.53
2022-12-20T05:05:48.557Z,100774.56
2022-12-20T05:10:50.129Z,100775.81
2022-12-20T05:15:55.780Z,100764.00
2022-12-20T05:21:17.969Z,100767.72
2022-12-20T05:26:19.833Z,100782.25
2022-12-20T05:31:21.451Z,100787.47
2022-12-20T05:36:22.919Z,100781.31
2022-12-20T05:41:24.419Z,100768.94
2022-12-20T05:46:25.950Z,100778.34
2022-12-20T05:51:27.587Z,100784.81
2022-12-20T05:56:29.034Z,100749.38
2022-12-20T06:01:30.609Z,100756.72
2022-12-20T06:06:32.056Z,100753.50
2022-12-20T06:11:33.817Z,100759.47
2022-12-20T06:16:36.318Z,100762.06
2022-12-20T06:21:37.778Z,100760.78
2022-12-20T06:26:39.204Z,100741.94
2022-12-20T06:31:41.126Z,100742.59
2022-12-20T06:36:42.665Z,100738.34
2022-12-20T06:41:44.583Z,100748.19
2022-12-20T06:46:46.020Z,100747.53
2022-12-20T06:51:47.492Z,100750.69
2022-12-20T06:56:48.984Z,100748.44
2022-12-20T07:01:50.542Z,100742.28
2022-12-20T07:06:52.119Z,100755.50
2022-12-20T07:11:53.563Z,100749.84
2022-12-20T07:16:55.219Z,100750.19
2022-12-20T07:21:56.693Z,100761.38
2022-12-20T07:26:58.373Z,100762.22
2022-12-20T07:32:00.192Z,100752.91
2022-12-20T07:37:01.687Z,100753.03
2022-12-20T07:42:03.163Z,100748.56
2022-12-20T07:47:04.759Z,100754.09
2022-12-20T07:52:10.837Z,100760.94
2022-12-20T07:57:17.967Z,100751.94
2022-12-20T08:02:27.443Z,100744.97
2022-12-20T08:07:30.109Z,100742.56
2022-12-20T08:12:32.859Z,100739.84
2022-12-20T08:17:34.811Z,100747.47
2022-12-20T08:22:36.289Z,100731.75
2022-12-20T08:27:37.831Z,100746.38
2022-12-20T08:32:39.373Z,100732.94
2022-12-20T08:37:40.853Z,100738.63
2022-12-20T08:42:42.306Z,100754.41
2022-12-20T08:47:43.739Z,100769.75
2022-12-20T08:52:45.169Z,100768.78
2022-12-20T08:57:46.582Z,100769.00
2022-12-20T09:02:49.059Z,100762.38
2022-12-20T09:07:50.564Z,100766.16
2022-12-20T09:12:52.028Z,100767.59
2022-12-20T09:17:53.561Z,100737.97
2022-12-20T09:22:55.406Z,100738.94
2022-12-20T09:27:56.884Z,100746.81
2022-12-20T09:32:58.868Z,100735.09
2022-12-20T09:38:12.659Z,100728.66
2022-12-20T09:43:15.994Z,100702.94
2022-12-20T09:48:21.600Z,100691.53
2022-12-20T09:54:03.776Z,100680.53
2022-12-20T09:59:11.510Z,100698.94
2022-12-20T10:04:19.684Z,100714.63
2022-12-20T10:09:29.985Z,100718.03
2022-12-20T10:15:12.363Z,100723.31
2022-12-20T10:20:23.149Z,100723.44
2022-12-20T10:25:30.620Z,100726.91
2022-12-20T10:30:33.440Z,100729.88
2022-12-20T10:35:40.874Z,100724.00
2022-12-20T10:46:11.887Z,100698.19
2022-12-20T10:51:17.324Z,100689.41
2022-12-20T10:56:29.940Z,100682.78
2022-12-20T11:01:35.641Z,100673.81
2022-12-20T11:06:37.129Z,100659.13
2022-12-20T11:11:38.815Z,100663.78
2022-12-20T11:16:40.752Z,100661.94
2022-12-20T11:22:09.601Z,100659.66
2022-12-20T11:27:19.677Z,100653.38
2022-12-20T11:32:49.050Z,100645.22
2022-12-20T11:37:51.028Z,100645.63
2022-12-20T11:43:21.421Z,100642.91
2022-12-20T11:48:35.063Z,100650.94
2022-12-20T11:53:49.098Z,100636.22
2022-12-20T11:58:55.745Z,100638.63
2022-12-20T12:04:42.387Z,100621.00
2022-12-20T12:10:06.372Z,100650.16
2022-12-20T12:15:48.099Z,100628.13
2022-12-20T12:21:09.487Z,100642.44
2022-12-20T12:26:27.694Z,100643.31
2022-12-20T12:32:08.519Z,100637.28
2022-12-20T12:37:44.020Z,100638.97
2022-12-20T12:42:58.952Z,100625.19
2022-12-20T12:48:04.062Z,100618.59
2022-12-20T12:53:13.395Z,100611.88
2022-12-20T12:58:23.982Z,100596.00
2022-12-20T13:03:47.475Z,100606.50
2022-12-20T13:09:10.406Z,100583.81
2022-12-20T13:14:17.876Z,100594.66
2022-12-20T13:19:34.410Z,100601.88
2022-12-20T13:24:56.728Z,100609.38
2022-12-20T13:30:07.347Z,100597.75
2022-12-20T13:35:27.933Z,100569.50
2022-12-20T13:40:38.265Z,100589.63
2022-12-20T13:45:45.719Z,100571.94
2022-12-20T13:50:50.966Z,100538.91
2022-12-20T13:55:53.088Z,100554.50
2022-12-20T14:01:05.599Z,100531.03
2022-12-20T14:06:11.474Z,100533.25
2022-12-20T14:11:22.114Z,100548.00
2022-12-20T14:16:25.833Z,100525.06
2022-12-20T14:21:28.446Z,100544.56
2022-12-20T14:26:44.735Z,100531.72
2022-12-20T14:31:50.108Z,100512.59
2022-12-20T14:36:51.746Z,100528.41
2022-12-20T14:41:57.881Z,100514.59
2022-12-20T14:47:02.290Z,100519.06
2022-12-20T14:52:17.820Z,100514.97
2022-12-20T14:57:22.014Z,100520.06
2022-12-20T15:02:54.362Z,100494.41
2022-12-20T15:07:55.935Z,100494.16
2022-12-20T15:12:57.581Z,100484.09
2022-12-20T15:17:59.017Z,100456.28
2022-12-20T15:23:00.529Z,100467.94
2022-12-20T15:28:01.979Z,100475.66
2022-12-20T15:33:03.547Z,100477.41
2022-12-20T15:38:05.002Z,100470.47
2022-12-20T15:43:10.196Z,100462.00
2022-12-20T15:48:16.057Z,100483.09
2022-12-20T15:53:22.618Z,100484.50
2022-12-20T15:58:25.026Z,100472.81
2022-12-20T16:03:31.394Z,100449.13
2022-12-20T16:08:33.430Z,100436.22
2022-12-20T16:13:35.283Z,100444.81
2022-12-20T16:18:36.785Z,100436.22
2022-12-20T16:23:39.117Z,100449.13
2022-12-20T16:28:40.813Z,100451.13
2022-12-20T16:33:42.232Z,100457.53
2022-12-20T16:38:44.890Z,100447.22
2022-12-20T16:43:47.439Z,100442.34
2022-12-20T16:48:50.063Z,100452.41
2022-12-20T16:54:19.378Z,100458.34
2022-12-20T16:59:23.433Z,100474.84
2022-12-20T17:04:26.699Z,100458.59
2022-12-20T17:09:28.278Z,100454.03
2022-12-20T17:14:30.026Z,100453.22
2022-12-20T17:19:31.483Z,100434.75
2022-12-20T17:24:33.663Z,100439.84
2022-12-20T17:29:35.101Z,100453.50
2022-12-20T17:34:36.650Z,100447.81
2022-12-20T17:39:38.090Z,100438.75
2022-12-20T17:44:39.621Z,100445.06
2022-12-20T17:49:41.099Z,100469.91
2022-12-20T17:54:42.807Z,100459.81
2022-12-20T17:59:44.604Z,100449.94
2022-12-20T18:04:47.179Z,100428.00
2022-12-20T18:09:49.279Z,100437.94
2022-12-20T18:14:51.255Z,100446.34
2022-12-20T18:19:55.696Z,100441.94
2022-12-20T18:24:57.138Z,100423.22
2022-12-20T18:29:58.613Z,100432.03
2022-12-20T18:35:00.056Z,100416.03
2022-12-20T18:40:01.549Z,100401.69
2022-12-20T18:45:03.245Z,100402.22
2022-12-20T18:50:05.413Z,100410.47
2022-12-20T18:55:07.185Z,100381.56
2022-12-20T19:00:09.246Z,100370.06
2022-12-20T19:05:10.652Z,100356.59
2022-12-20T19:10:12.072Z,100364.41
2022-12-20T19:15:14.520Z,100365.69
2022-12-20T19:20:16.266Z,100361.78
2022-12-20T19:25:17.685Z,100363.44
2022-12-20T19:30:19.197Z,100364.00
2022-12-20T19:35:54.229Z,100349.41
2022-12-20T19:40:52.001Z,100343.81
2022-12-20T19:45:53.781Z,100342.69
2022-12-20T19:51:05.973Z,100358.63
2022-12-20T19:56:08.723Z,100355.09
2022-12-20T20:01:10.977Z,100339.13
2022-12-20T20:06:13.290Z,100323.56
2022-12-20T20:11:14.730Z,100327.53
2022-12-20T20:16:21.830Z,100319.59
2022-12-20T20:21:24.596Z,100325.44
2022-12-20T20:26:29.236Z,100324.16
2022-12-20T20:31:30.787Z,100296.91
2022-12-20T20:36:32.367Z,100278.59
2022-12-20T20:41:33.858Z,100296.94
2022-12-20T20:46:35.328Z,100309.56
2022-12-20T20:51:36.808Z,100297.59
2022-12-20T20:56:38.266Z,100288.50
2022-12-20T21:01:39.777Z,100283.03
2022-12-20T21:06:42.154Z,100299.47
2022-12-20T21:11:44.867Z,100286.88
2022-12-20T21:16:46.409Z,100279.66
2022-12-20T21:21:47.880Z,100290.53
2022-12-20T21:26:51.075Z,100286.84
2022-12-20T21:31:52.563Z,100275.25
2022-12-20T21:36:54.256Z,100269.91
2022-12-20T21:42:01.505Z,100275.25
2022-12-20T21:47:03.538Z,100261.91
2022-12-20T21:52:05.092Z,100297.00
2022-12-20T21:57:06.546Z,100252.78
2022-12-20T22:02:11.384Z,100240.44
2022-12-20T22:07:13.041Z,100248.88
2022-12-20T22:12:14.448Z,100229.81
2022-12-20T22:17:15.886Z,100239.31
2022-12-20T22:22:18.440Z,100234.41
2022-12-20T22:27:19.901Z,100238.06
2022-12-20T22:32:21.386Z,100229.34
2022-12-20T22:37:22.832Z,100205.22
2022-12-20T22:42:24.263Z,100224.34
2022-12-20T22:52:44.206Z,100208.91
2022-12-20T22:57:45.935Z,100210.03
2022-12-20T23:02:47.538Z,100186.78
2022-12-20T23:07:49.052Z,100161.22
2022-12-20T23:13:09.343Z,100167.78
2022-12-20T23:18:10.819Z,100158.69
2022-12-20T23:23:12.218Z,100161.28
2022-12-20T23:28:13.668Z,100159.91
2022-12-20T23:33:15.113Z,100161.25
2022-12-20T23:38:16.546Z,100180.66
2022-12-20T23:43:18.731Z,100177.78
2022-12-20T23:48:20.128Z,100166.59
2022-12-20T23:53:21.546Z,100179.91
2022-12-20T23:58:22.974Z,100179.91
